createdAt,value
2023-02-05T00:02:18.496Z,102031.10
2023-02-05T00:04:50.268Z,102031.63
2023-02-05T00:07:21.893Z,102029.73
2023-02-05T00:09:53.592Z,102030.27
2023-02-05T00:12:25.208Z,102032.48
2023-02-05T00:14:56.957Z,102032.45
2023-02-05T00:17:28.988Z,102035.64
2023-02-05T00:20:01.125Z,102036.83
2023-02-05T00:22:33.768Z,102041.11
2023-02-05T00:25:06.585Z,102040.28
2023-02-05T00:27:38.738Z,102044.35
2023-02-05T00:30:13.604Z,102046.06
2023-02-05T00:32:45.245Z,102048.73
2023-02-05T00:35:17.387Z,102050.89
2023-02-05T00:37:49.104Z,102053.46
2023-02-05T00:40:21.477Z,102058.56
2023-02-05T00:42:53.991Z,102064.69
2023-02-05T00:45:25.736Z,102069.47
2023-02-05T00:47:57.849Z,102071.93
2023-02-05T00:50:30.065Z,102076.24
2023-02-05T00:53:02.375Z,102069.33
2023-02-05T00:55:34.777Z,102068.64
2023-02-05T00:58:06.929Z,102063.44
2023-02-05T01:00:40.833Z,102058.75
2023-02-05T01:03:13.806Z,102062.13
2023-02-05T01:05:46.359Z,102058.90
2023-02-05T01:08:19.252Z,102055.48
2023-02-05T01:10:52.594Z,102052.74
2023-02-05T01:13:24.241Z,102056.77
2023-02-05T01:15:56.609Z,102056.23
2023-02-05T01:18:29.178Z,102058.62
2023-02-05T01:21:01.771Z,102061.05
2023-02-05T01:23:33.573Z,102064.43
2023-02-05T01:26:05.243Z,102068.50
2023-02-05T01:28:37.310Z,102075.86
2023-02-05T01:31:09.404Z,102071.95
2023-02-05T01:33:41.451Z,102079.58
2023-02-05T01:36:13.659Z,102084.41
2023-02-05T01:38:45.496Z,102081.61
2023-02-05T01:41:17.526Z,102086.79
2023-02-05T01:44:11.055Z,102088.77
2023-02-05T01:46:44.888Z,102093.43
2023-02-05T01:49:21.420Z,102087.48
2023-02-05T01:51:55.200Z,102084.05
2023-02-05T01:54:30.232Z,102085.95
2023-02-05T01:57:06.654Z,102081.61
2023-02-05T01:59:42.222Z,102078.69
2023-02-05T02:02:14.412Z,102083.36
2023-02-05T02:04:49.349Z,102083.11
2023-02-05T02:07:24.937Z,102079.28
2023-02-05T02:09:57.200Z,102084.46
2023-02-05T02:12:31.880Z,102085.86
2023-02-05T02:15:04.397Z,102080.89
2023-02-05T02:17:41.190Z,102080.10
2023-02-05T02:20:18.472Z,102082.60
2023-02-05T02:23:08.436Z,102078.56
2023-02-05T02:26:12.754Z,102082.21
2023-02-05T02:28:52.581Z,102085.08
2023-02-05T02:31:30.869Z,102090.09
2023-02-05T02:34:09.928Z,102089.19
2023-02-05T02:36:49.503Z,102094.06
2023-02-05T02:39:25.291Z,102093.84
2023-02-05T02:42:03.829Z,102095.27
2023-02-05T02:44:39.731Z,102095.99
2023-02-05T02:47:17.451Z,102094.78
2023-02-05T02:49:54.571Z,102098.23
2023-02-05T02:52:28.279Z,102100.43
2023-02-05T02:55:08.197Z,102101.47
2023-02-05T02:57:42.085Z,102103.52
2023-02-05T03:00:20.013Z,102100.56
2023-02-05T03:02:55.254Z,102098.59
2023-02-05T03:05:29.900Z,102101.55
2023-02-05T03:08:09.784Z,102098.42
2023-02-05T03:10:46.188Z,102103.86
2023-02-05T03:13:19.930Z,102104.75
2023-02-05T03:15:52.248Z,102104.57
2023-02-05T03:18:24.107Z,102104.30
2023-02-05T03:21:00.960Z,102105.91
2023-02-05T03:23:33.074Z,102105.13
2023-02-05T03:26:04.845Z,102098.45
2023-02-05T03:28:36.986Z,102104.23
2023-02-05T03:31:16.146Z,102097.77
2023-02-05T03:33:58.649Z,102091.95
2023-02-05T03:36:40.936Z,102090.21
2023-02-05T03:39:27.148Z,102091.89
2023-02-05T03:42:11.823Z,102096.84
2023-02-05T03:45:09.165Z,102099.04
2023-02-05T03:47:48.910Z,102102.12
2023-02-05T03:50:31.194Z,102099.12
2023-02-05T03:53:09.523Z,102099.34
2023-02-05T03:55:44.070Z,102094.86
2023-02-05T03:58:21.046Z,102097.55
2023-02-05T04:00:53.270Z,102098.04
2023-02-05T04:03:25.330Z,102098.23
2023-02-05T04:05:56.870Z,102099.47
2023-02-05T04:08:29.047Z,102096.06
2023-02-05T04:11:00.724Z,102093.80
2023-02-05T04:13:32.903Z,102088.81
2023-02-05T04:16:05.481Z,102088.77
2023-02-05T04:18:37.227Z,102089.61
2023-02-05T04:21:09.759Z,102086.16
2023-02-05T04:23:41.589Z,102083.04
2023-02-05T04:26:14.322Z,102078.34
2023-02-05T04:28:46.124Z,102085.99
2023-02-05T04:31:17.898Z,102091.24
2023-02-05T04:33:49.627Z,102096.28
2023-02-05T04:36:26.247Z,102096.17
2023-02-05T04:39:05.270Z,102098.98
2023-02-05T04:41:41.803Z,102096.80
2023-02-05T04:44:13.973Z,102098.73
2023-02-05T04:46:46.559Z,102098.79
2023-02-05T04:49:18.793Z,102101.33
2023-02-05T04:51:50.459Z,102105.03
2023-02-05T04:54:22.055Z,102113.59
2023-02-05T04:56:53.857Z,102116.66
2023-02-05T04:59:25.403Z,102117.15
2023-02-05T05:01:57.061Z,102119.14
2023-02-05T05:04:28.829Z,102122.96
2023-02-05T05:07:00.588Z,102126.30
2023-02-05T05:09:32.301Z,102115.86
2023-02-05T05:12:03.918Z,102119.44
2023-02-05T05:14:36.011Z,102118.71
2023-02-05T05:17:07.686Z,102123.31
2023-02-05T05:19:40.421Z,102122.09
2023-02-05T05:22:12.204Z,102115.29
2023-02-05T05:24:43.751Z,102115.16
2023-02-05T05:27:15.524Z,102115.62
2023-02-05T05:29:48.280Z,102115.96
2023-02-05T05:32:19.947Z,102117.73
2023-02-05T05:34:51.604Z,102118.61
2023-02-05T05:37:23.266Z,102113.75
2023-02-05T05:40:12.160Z,102115.70
2023-02-05T05:43:01.288Z,102117.27
2023-02-05T05:45:33.038Z,102124.83
2023-02-05T05:48:05.842Z,102130.42
2023-02-05T05:50:38.217Z,102139.80
2023-02-05T05:53:12.203Z,102145.85
2023-02-05T05:55:44.322Z,102146.50
2023-02-05T05:58:16.553Z,102148.20
2023-02-05T06:00:49.568Z,102158.11
2023-02-05T06:03:22.517Z,102166.55
2023-02-05T06:05:54.242Z,102166.89
2023-02-05T06:08:26.373Z,102161.89
2023-02-05T06:10:58.354Z,102163.42
2023-02-05T06:13:30.576Z,102159.27
2023-02-05T06:16:02.197Z,102160.63
2023-02-05T06:18:34.210Z,102164.96
2023-02-05T06:21:07.368Z,102166.36
2023-02-05T06:23:39.692Z,102160.57
2023-02-05T06:26:11.969Z,102153.92
2023-02-05T06:28:43.705Z,102152.68
2023-02-05T06:31:15.648Z,102154.90
2023-02-05T06:33:47.581Z,102158.50
2023-02-05T06:36:19.288Z,102156.14
2023-02-05T06:38:51.237Z,102151.13
2023-02-05T06:41:22.891Z,102148.39
2023-02-05T06:43:55.194Z,102148.08
2023-02-05T06:46:27.379Z,102150.33
2023-02-05T06:48:59.682Z,102147.96
2023-02-05T06:51:31.331Z,102150.89
2023-02-05T06:54:05.583Z,102148.34
2023-02-05T06:56:37.580Z,102150.92
2023-02-05T06:59:10.741Z,102165.41
2023-02-05T07:01:42.511Z,102172.46
2023-02-05T07:04:14.215Z,102170.44
2023-02-05T07:06:47.277Z,102170.42
2023-02-05T07:09:19.340Z,102178.38
2023-02-05T07:11:51.037Z,102181.11
2023-02-05T07:14:22.820Z,102185.77
2023-02-05T07:16:54.892Z,102187.65
2023-02-05T07:19:27.895Z,102190.06
2023-02-05T07:22:00.099Z,102190.40
2023-02-05T07:24:33.022Z,102188.70
2023-02-05T07:27:04.814Z,102188.38
2023-02-05T07:29:36.564Z,102196.63
2023-02-05T07:32:08.807Z,102199.42
2023-02-05T07:34:41.265Z,102205.60
2023-02-05T07:37:14.794Z,102200.60
2023-02-05T07:39:46.590Z,102207.64
2023-02-05T07:42:18.228Z,102208.34
2023-02-05T07:44:50.517Z,102210.61
2023-02-05T07:47:22.135Z,102214.59
2023-02-05T07:49:53.952Z,102216.47
2023-02-05T07:52:25.803Z,102219.87
2023-02-05T07:54:57.449Z,102221.58
2023-02-05T07:57:29.253Z,102224.32
2023-02-05T08:00:02.006Z,102227.61
2023-02-05T08:02:34.380Z,102227.85
2023-02-05T08:05:06.385Z,102233.70
2023-02-05T08:07:38.925Z,102236.62
2023-02-05T08:10:12.625Z,102232.82
2023-02-05T08:12:44.803Z,102242.61
2023-02-05T08:15:17.418Z,102240.73
2023-02-05T08:17:49.171Z,102247.45
2023-02-05T08:20:22.609Z,102254.52
2023-02-05T08:22:54.493Z,102255.55
2023-02-05T08:25:26.236Z,102259.02
2023-02-05T08:27:58.516Z,102265.90
2023-02-05T08:30:30.966Z,102266.40
2023-02-05T08:33:03.030Z,102262.63
2023-02-05T08:35:35.240Z,102259.70
2023-02-05T08:38:07.161Z,102257.63
2023-02-05T08:40:39.905Z,102257.29
2023-02-05T08:43:12.594Z,102264.16
2023-02-05T08:45:47.279Z,102267.60
2023-02-05T08:48:17.776Z,102263.81
2023-02-05T08:50:50.771Z,102267.77
2023-02-05T08:53:22.440Z,102273.95
2023-02-05T08:56:00.517Z,102283.77
2023-02-05T08:58:32.595Z,102280.34
2023-02-05T09:01:09.581Z,102285.50
2023-02-05T09:03:41.454Z,102292.58
2023-02-05T09:06:16.061Z,102299.98
2023-02-05T09:08:47.735Z,102300.66
2023-02-05T09:11:24.321Z,102302.54
2023-02-05T09:13:56.875Z,102303.91
2023-02-05T09:16:29.373Z,102308.89
2023-02-05T09:19:01.845Z,102305.63
2023-02-05T09:21:33.911Z,102307.17
2023-02-05T09:24:05.757Z,102313.19
2023-02-05T09:26:38.256Z,102305.21
2023-02-05T09:29:10.697Z,102304.52
2023-02-05T09:31:43.962Z,102306.41
2023-02-05T09:34:17.635Z,102311.74
2023-02-05T09:36:50.037Z,102313.50
2023-02-05T09:40:01.892Z,102306.27
2023-02-05T09:42:24.208Z,102298.17
2023-02-05T09:45:09.637Z,102297.46
2023-02-05T09:47:49.638Z,102293.30
2023-02-05T09:50:29.979Z,102289.46
2023-02-05T09:53:06.220Z,102292.09
2023-02-05T09:55:45.078Z,102296.42
2023-02-05T09:58:20.040Z,102294.51
2023-02-05T10:00:54.797Z,102298.98
2023-02-05T10:03:27.392Z,102295.88
2023-02-05T10:06:14.189Z,102296.52
2023-02-05T10:08:54.891Z,102297.54
2023-02-05T10:11:34.102Z,102298.34
2023-02-05T10:14:15.396Z,102302.77
2023-02-05T10:17:03.208Z,102297.54
2023-02-05T10:19:59.612Z,102302.21
2023-02-05T10:22:39.908Z,102299.45
2023-02-05T10:25:56.455Z,102305.97
2023-02-05T10:28:53.585Z,102300.61
2023-02-05T10:31:42.066Z,102297.21
2023-02-05T10:34:32.495Z,102296.09
2023-02-05T10:39:45.897Z,102286.25
2023-02-05T10:42:28.650Z,102280.52
2023-02-05T10:45:06.110Z,102277.25
2023-02-05T10:47:51.542Z,102282.65
2023-02-05T10:50:30.525Z,102285.74
2023-02-05T10:53:02.341Z,102282.70
2023-02-05T10:55:35.904Z,102278.21
2023-02-05T10:58:29.172Z,102275.40
2023-02-05T11:01:02.448Z,102269.84
2023-02-05T11:03:34.590Z,102270.38
2023-02-05T11:06:13.462Z,102273.55
2023-02-05T11:08:45.987Z,102273.04
2023-02-05T11:15:33.360Z,102266.12
2023-02-05T11:18:08.187Z,102262.64
2023-02-05T11:20:42.568Z,102263.08
2023-02-05T11:24:05.982Z,102264.95
2023-02-05T11:26:43.987Z,102265.27
2023-02-05T11:29:26.142Z,102264.65
2023-02-05T11:31:58.255Z,102264.63
2023-02-05T11:34:29.995Z,102263.42
2023-02-05T11:37:02.332Z,102259.70
2023-02-05T11:39:38.160Z,102251.79
2023-02-05T11:42:18.727Z,102250.77
2023-02-05T11:44:54.468Z,102241.66
2023-02-05T11:47:30.529Z,102245.45
2023-02-05T11:50:04.558Z,102247.27
2023-02-05T11:52:39.903Z,102249.41
2023-02-05T11:55:30.021Z,102244.68
2023-02-05T11:58:07.337Z,102242.20
2023-02-05T12:00:51.961Z,102236.89
2023-02-05T12:03:24.641Z,102234.34
2023-02-05T12:06:04.873Z,102235.58
2023-02-05T12:08:43.967Z,102239.20
2023-02-05T12:11:30.763Z,102238.42
2023-02-05T12:14:19.098Z,102237.17
2023-02-05T12:16:58.058Z,102233.54
2023-02-05T12:19:39.674Z,102235.71
2023-02-05T12:22:24.498Z,102236.80
2023-02-05T12:25:15.724Z,102238.39
2023-02-05T12:28:05.225Z,102233.89
2023-02-05T12:30:53.542Z,102228.27
2023-02-05T12:33:49.684Z,102222.91
2023-02-05T12:36:39.641Z,102222.77
2023-02-05T12:39:26.371Z,102225.71
2023-02-05T12:42:08.002Z,102232.31
2023-02-05T12:44:53.963Z,102232.44
2023-02-05T12:47:45.004Z,102233.79
2023-02-05T12:50:35.508Z,102229.83
2023-02-05T12:53:27.579Z,102230.23
2023-02-05T12:56:23.908Z,102228.94
2023-02-05T12:59:01.703Z,102232.86
2023-02-05T13:01:44.111Z,102228.09
2023-02-05T13:04:29.769Z,102229.98
2023-02-05T13:07:09.540Z,102232.02
2023-02-05T13:09:50.011Z,102233.41
2023-02-05T13:12:26.826Z,102235.16
2023-02-05T13:15:06.450Z,102235.52
2023-02-05T13:17:44.257Z,102237.46
2023-02-05T13:20:50.508Z,102239.89
2023-02-05T13:23:41.457Z,102238.84
2023-02-05T13:26:36.015Z,102237.61
2023-02-05T13:29:14.235Z,102245.17
2023-02-05T13:31:49.742Z,102244.75
2023-02-05T13:34:22.266Z,102243.05
2023-02-05T13:37:36.218Z,102247.96
2023-02-05T13:40:37.639Z,102251.73
2023-02-05T13:43:33.983Z,102251.92
2023-02-05T13:46:30.504Z,102248.64
2023-02-05T13:49:34.885Z,102240.15
2023-02-05T13:52:20.633Z,102241.02
2023-02-05T13:55:19.376Z,102238.41
2023-02-05T13:58:24.874Z,102234.13
2023-02-05T14:01:01.638Z,102235.30
2023-02-05T14:03:40.484Z,102233.62
2023-02-05T14:06:25.148Z,102236.11
2023-02-05T14:09:08.245Z,102229.95
2023-02-05T14:12:04.162Z,102225.89
2023-02-05T14:14:37.842Z,102233.15
2023-02-05T14:17:41.956Z,102229.52
2023-02-05T14:20:37.880Z,102234.51
2023-02-05T14:23:18.481Z,102243.85
2023-02-05T14:26:12.016Z,102250.44
2023-02-05T14:28:58.363Z,102250.13
2023-02-05T14:32:02.884Z,102252.91
2023-02-05T14:35:02.017Z,102253.65
2023-02-05T14:37:48.250Z,102254.50
2023-02-05T14:40:31.102Z,102256.52
2023-02-05T14:43:16.454Z,102263.29
2023-02-05T14:45:58.807Z,102264.84
2023-02-05T14:48:36.655Z,102266.20
2023-02-05T14:51:19.777Z,102265.56
2023-02-05T14:54:06.428Z,102265.55
2023-02-05T14:56:45.614Z,102265.05
2023-02-05T14:59:33.363Z,102267.98
2023-02-05T15:02:36.205Z,102266.05
2023-02-05T15:05:17.174Z,102271.23
2023-02-05T15:07:56.693Z,102267.30
2023-02-05T15:10:39.889Z,102274.00
2023-02-05T15:13:16.996Z,102272.11
2023-02-05T15:16:20.548Z,102274.00
2023-02-05T15:18:55.251Z,102286.27
2023-02-05T15:21:33.996Z,102285.39
2023-02-05T15:24:16.505Z,102288.66
2023-02-05T15:26:55.010Z,102286.94
2023-02-05T15:29:33.422Z,102286.95
2023-02-05T15:32:10.766Z,102287.64
2023-02-05T15:34:48.704Z,102289.02
2023-02-05T15:37:28.152Z,102288.52
2023-02-05T15:40:05.576Z,102287.52
2023-02-05T15:42:42.370Z,102293.89
2023-02-05T15:45:28.486Z,102294.23
2023-02-05T15:48:08.078Z,102297.33
2023-02-05T15:50:46.184Z,102299.25
2023-02-05T15:53:38.682Z,102305.97
2023-02-05T15:56:17.297Z,102309.41
2023-02-05T15:58:55.777Z,102310.10
2023-02-05T16:01:32.303Z,102313.73
2023-02-05T16:04:18.340Z,102314.06
2023-02-05T16:06:53.053Z,102316.65
2023-02-05T16:09:26.188Z,102320.11
2023-02-05T16:12:00.570Z,102326.81
2023-02-05T16:14:36.346Z,102323.73
2023-02-05T16:17:15.117Z,102316.83
2023-02-05T16:19:53.760Z,102318.89
2023-02-05T16:22:42.491Z,102322.00
2023-02-05T16:25:30.323Z,102325.27
2023-02-05T16:28:05.776Z,102322.35
2023-02-05T16:30:44.926Z,102322.35
2023-02-05T16:33:33.025Z,102328.73
2023-02-05T16:36:09.091Z,102323.37
2023-02-05T16:38:42.863Z,102321.30
2023-02-05T16:41:30.449Z,102324.40
2023-02-05T16:44:08.997Z,102320.61
2023-02-05T16:46:45.228Z,102324.06
2023-02-05T16:49:34.535Z,102325.44
2023-02-05T16:52:27.116Z,102324.58
2023-02-05T16:55:01.336Z,102322.83
2023-02-05T16:57:40.943Z,102326.98
2023-02-05T17:00:26.551Z,102325.60
2023-02-05T17:03:10.903Z,102325.59
2023-02-05T17:05:45.432Z,102328.34
2023-02-05T17:08:19.416Z,102332.96
2023-02-05T17:10:58.740Z,102335.20
2023-02-05T17:13:38.027Z,102335.73
2023-02-05T17:16:45.701Z,102331.92
2023-02-05T17:19:30.571Z,102335.34
2023-02-05T17:22:23.720Z,102339.46
2023-02-05T17:24:58.949Z,102339.50
2023-02-05T17:27:34.413Z,102338.30
2023-02-05T17:30:17.296Z,102337.63
2023-02-05T17:32:52.244Z,102340.38
2023-02-05T17:35:32.335Z,102342.91
2023-02-05T17:38:06.679Z,102348.25
2023-02-05T17:40:45.015Z,102344.48
2023-02-05T17:43:19.494Z,102348.78
2023-02-05T17:45:53.464Z,102353.98
2023-02-05T17:48:28.228Z,102356.05
2023-02-05T17:51:06.008Z,102365.00
2023-02-05T17:53:44.026Z,102359.51
2023-02-05T17:56:20.482Z,102360.17
2023-02-05T17:59:00.510Z,102363.95
2023-02-05T18:01:33.885Z,102370.15
2023-02-05T18:04:08.853Z,102365.86
2023-02-05T18:06:47.880Z,102368.95
2023-02-05T18:09:26.667Z,102366.52
2023-02-05T18:12:04.642Z,102371.67
2023-02-05T18:14:40.902Z,102375.98
2023-02-05T18:17:14.912Z,102377.06
2023-02-05T18:19:47.374Z,102374.83
2023-02-05T18:22:25.014Z,102375.34
2023-02-05T18:24:59.239Z,102373.98
2023-02-05T18:27:32.581Z,102372.25
2023-02-05T18:30:11.144Z,102363.96
2023-02-05T18:32:44.389Z,102363.09
2023-02-05T18:35:18.553Z,102361.04
2023-02-05T18:37:52.617Z,102361.07
2023-02-05T18:40:26.858Z,102360.36
2023-02-05T18:42:59.937Z,102357.95
2023-02-05T18:45:35.157Z,102359.49
2023-02-05T18:48:10.269Z,102360.00
2023-02-05T18:50:44.588Z,102357.42
2023-02-05T18:53:20.468Z,102355.19
2023-02-05T18:56:09.502Z,102351.77
2023-02-05T18:58:52.180Z,102348.32
2023-02-05T19:01:31.387Z,102355.20
2023-02-05T19:04:12.787Z,102355.89
2023-02-05T19:06:50.009Z,102360.19
2023-02-05T19:09:25.207Z,102366.56
2023-02-05T19:11:59.062Z,102364.15
2023-02-05T19:14:34.323Z,102367.59
2023-02-05T19:17:08.721Z,102370.70
2023-02-05T19:19:43.328Z,102367.79
2023-02-05T19:22:15.349Z,102367.27
2023-02-05T19:24:52.673Z,102362.96
2023-02-05T19:27:26.930Z,102359.53
2023-02-05T19:29:59.887Z,102358.14
2023-02-05T19:32:34.464Z,102364.16
2023-02-05T19:35:08.705Z,102366.24
2023-02-05T19:37:42.450Z,102367.09
2023-02-05T19:40:20.930Z,102371.58
2023-02-05T19:42:56.919Z,102370.90
2023-02-05T19:45:32.882Z,102369.69
2023-02-05T19:48:08.487Z,102374.49
2023-02-05T19:50:46.795Z,102375.02
2023-02-05T19:53:23.700Z,102375.70
2023-02-05T19:55:56.989Z,102383.11
2023-02-05T19:58:32.573Z,102380.70
2023-02-05T20:01:14.641Z,102382.09
2023-02-05T20:03:49.531Z,102386.90
2023-02-05T20:06:39.151Z,102382.42
2023-02-05T20:09:17.102Z,102381.73
2023-02-05T20:11:53.655Z,102389.31
2023-02-05T20:14:29.442Z,102395.00
2023-02-05T20:17:08.294Z,102393.10
2023-02-05T20:19:42.737Z,102393.95
2023-02-05T20:22:17.207Z,102397.58
2023-02-05T20:24:50.578Z,102404.29
2023-02-05T20:27:28.240Z,102402.55
2023-02-05T20:30:18.287Z,102405.98
2023-02-05T20:32:55.365Z,102405.83
2023-02-05T20:35:28.648Z,102406.88
2023-02-05T20:38:03.452Z,102415.65
2023-02-05T20:40:36.358Z,102416.34
2023-02-05T20:43:10.435Z,102418.59
2023-02-05T20:45:49.865Z,102422.02
2023-02-05T20:48:27.694Z,102425.99
2023-02-05T20:51:09.174Z,102428.55
2023-02-05T20:53:44.770Z,102433.56
2023-02-05T20:56:20.457Z,102438.19
2023-02-05T20:58:54.157Z,102437.00
2023-02-05T21:01:28.211Z,102438.23
2023-02-05T21:04:03.458Z,102436.67
2023-02-05T21:06:38.585Z,102436.14
2023-02-05T21:09:13.603Z,102436.66
2023-02-05T21:11:47.115Z,102434.60
2023-02-05T21:14:20.333Z,102437.02
2023-02-05T21:16:52.534Z,102441.32
2023-02-05T21:19:25.418Z,102446.12
2023-02-05T21:21:58.788Z,102442.84
2023-02-05T21:24:30.948Z,102444.57
2023-02-05T21:27:04.830Z,102450.26
2023-02-05T21:29:38.751Z,102446.30
2023-02-05T21:32:10.708Z,102444.42
2023-02-05T21:34:44.802Z,102446.48
2023-02-05T21:37:17.195Z,102448.70
2023-02-05T21:39:52.752Z,102446.81
2023-02-05T21:42:31.033Z,102455.73
2023-02-05T21:45:03.638Z,102460.92
2023-02-05T21:47:35.469Z,102465.06
2023-02-05T21:50:08.174Z,102469.55
2023-02-05T21:52:40.140Z,102474.73
2023-02-05T21:55:13.621Z,102467.69
2023-02-05T21:57:45.413Z,102470.77
2023-02-05T22:00:18.591Z,102473.19
2023-02-05T22:02:50.337Z,102473.70
2023-02-05T22:05:22.064Z,102474.54
2023-02-05T22:07:53.820Z,102472.78
2023-02-05T22:10:25.652Z,102480.68
2023-02-05T22:12:58.067Z,102477.25
2023-02-05T22:15:31.463Z,102470.04
2023-02-05T22:18:03.811Z,102473.83
2023-02-05T22:20:35.534Z,102482.58
2023-02-05T22:23:07.276Z,102482.23
2023-02-05T22:25:39.185Z,102483.75
2023-02-05T22:28:10.988Z,102490.58
2023-02-05T22:30:42.773Z,102490.37
2023-02-05T22:33:14.547Z,102487.23
2023-02-05T22:35:46.401Z,102488.73
2023-02-05T22:38:18.143Z,102492.13
2023-02-05T22:40:49.938Z,102484.61
2023-02-05T22:43:22.084Z,102479.96
2023-02-05T22:45:53.791Z,102488.52
2023-02-05T22:48:25.525Z,102482.08
2023-02-05T22:50:57.260Z,102472.42
2023-02-05T22:53:29.102Z,102467.48
2023-02-05T22:56:04.384Z,102472.67
2023-02-05T22:58:37.112Z,102478.02
2023-02-05T23:01:13.476Z,102485.30
2023-02-05T23:03:46.187Z,102477.91
2023-02-05T23:06:19.792Z,102475.28
2023-02-05T23:08:55.007Z,102480.35
2023-02-05T23:11:29.712Z,102477.79
2023-02-05T23:13:59.873Z,102481.73
2023-02-05T23:16:35.881Z,102485.46
2023-02-05T23:19:09.675Z,102486.95
2023-02-05T23:21:43.536Z,102476.92
2023-02-05T23:24:15.287Z,102475.11
2023-02-05T23:26:48.839Z,102475.08
2023-02-05T23:29:21.238Z,102474.27
2023-02-05T23:31:52.927Z,102472.48
2023-02-05T23:34:24.749Z,102471.08
2023-02-05T23:36:56.951Z,102476.53
2023-02-05T23:39:28.697Z,102482.20
2023-02-05T23:42:02.234Z,102473.13
2023-02-05T23:44:34.088Z,102476.94
2023-02-05T23:47:05.820Z,102479.13
2023-02-05T23:49:37.650Z,102469.16
2023-02-05T23:52:09.410Z,102469.82
2023-02-05T23:54:41.012Z,102474.12
2023-02-05T23:57:12.661Z,102471.48
2023-02-05T23:59:45.876Z,102470.42
